Time;durP1;ratioP1;P1;durP2;ratioP2;P2;SDS_P1;SDS_P2;PMS_P1;PMS_P2;Temp;Humidity;BMP_temperature;BMP_pressure;BME280_temperature;BME280_humidity;BME280_pressure;Samples;Min_cycle;Max_cycle;Signal;HPM_P1;HPM_P2
2022/08/25 00:01:36;;;;;;;37.10;25.00;;;;;;;18.03;100.00;99193.55;104836;1274;70352;-73
2022/08/25 00:04:09;;;;;;;38.30;25.10;;;;;;;18.04;100.00;99193.11;104765;1274;74276;-72
2022/08/25 00:06:36;;;;;;;36.80;24.90;;;;;;;18.03;100.00;99191.89;104812;1274;61118;-72
2022/08/25 00:09:03;;;;;;;37.70;27.10;;;;;;;18.03;100.00;99189.80;104813;1274;62176;-72
2022/08/25 00:11:32;;;;;;;37.90;26.10;;;;;;;18.04;100.00;99188.09;104835;1274;74471;-73
2022/08/25 00:14:02;;;;;;;33.10;22.70;;;;;;;18.03;100.00;99182.01;104826;1274;70252;-73
2022/08/25 00:16:30;;;;;;;;;;;;;;;18.02;100.00;99179.63;104871;1274;71765;-72
2022/08/25 00:19:00;;;;;;;34.00;22.50;;;;;;;18.01;100.00;99178.98;104772;1274;60425;-72
2022/08/25 00:21:26;;;;;;;;;;;;;;;18.02;100.00;99182.87;104827;1274;61949;-72
2022/08/25 00:23:52;;;;;;;28.90;20.90;;;;;;;18.00;100.00;99179.40;104775;1275;60580;-72
2022/08/25 00:26:20;;;;;;;29.90;21.30;;;;;;;18.00;100.00;99177.84;104820;1274;60935;-73
2022/08/25 00:28:45;;;;;;;34.70;22.00;;;;;;;17.99;100.00;99175.58;104545;1274;72818;-72
2022/08/25 00:31:13;;;;;;;31.90;21.10;;;;;;;17.99;100.00;99173.05;104841;1274;60607;-71
2022/08/25 00:33:40;;;;;;;31.40;20.90;;;;;;;17.99;100.00;99177.13;104836;1275;60472;-71
2022/08/25 00:36:06;;;;;;;32.70;22.30;;;;;;;17.99;100.00;99178.27;104855;1274;75810;-71
2022/08/25 00:38:32;;;;;;;27.70;21.50;;;;;;;17.97;100.00;99176.96;104821;1274;60492;-72
2022/08/25 00:41:04;;;;;;;33.20;22.20;;;;;;;17.95;100.00;99172.66;104799;1274;60536;-72
2022/08/25 00:43:39;;;;;;;34.50;21.20;;;;;;;17.93;100.00;99174.48;104825;1274;60597;-72
2022/08/25 00:46:07;;;;;;;29.90;22.30;;;;;;;17.92;100.00;99175.86;104799;1274;60982;-72
2022/08/25 00:48:33;;;;;;;26.10;21.80;;;;;;;17.91;100.00;99175.25;104645;1277;74580;-73
2022/08/25 00:51:02;;;;;;;30.40;22.10;;;;;;;17.89;100.00;99178.15;104839;1274;70393;-73
2022/08/25 00:53:29;;;;;;;32.10;22.20;;;;;;;17.86;100.00;99175.06;104908;1274;72710;-72
2022/08/25 00:55:57;;;;;;;34.70;21.40;;;;;;;17.85;100.00;99175.09;104825;1274;61225;-72
2022/08/25 00:58:26;;;;;;;39.10;23.10;;;;;;;17.83;100.00;99174.92;104843;1275;61902;-72
2022/08/25 01:00:54;;;;;;;30.00;22.50;;;;;;;17.82;100.00;99171.39;104835;1274;74313;-71
2022/08/25 01:03:25;;;;;;;31.50;22.20;;;;;;;17.81;100.00;99165.45;104848;1275;70281;-73
2022/08/25 01:05:52;;;;;;;30.30;22.90;;;;;;;17.80;100.00;99170.54;104842;1274;73892;-72
2022/08/25 01:08:24;;;;;;;33.10;21.70;;;;;;;17.78;100.00;99168.34;104840;1274;61319;-73
2022/08/25 01:10:50;;;;;;;35.00;21.90;;;;;;;17.76;100.00;99165.42;104845;1275;61042;-73
2022/08/25 01:13:25;;;;;;;33.80;21.20;;;;;;;17.75;100.00;99167.50;104799;1274;60495;-72
2022/08/25 01:15:54;;;;;;;39.10;22.60;;;;;;;17.74;100.00;99169.80;104828;1274;70424;-72
2022/08/25 01:18:22;;;;;;;32.20;22.40;;;;;;;17.72;100.00;99161.91;104852;1275;73624;-71
2022/08/25 01:20:53;;;;;;;29.70;20.90;;;;;;;17.70;100.00;99164.02;104842;1274;61087;-73
2022/08/25 01:23:20;;;;;;;33.70;21.10;;;;;;;17.70;100.00;99164.27;104846;1274;62298;-72
2022/08/25 01:25:55;;;;;;;31.30;21.90;;;;;;;17.70;100.00;99161.41;104853;1274;74613;-71
2022/08/25 01:28:21;;;;;;;31.00;23.60;;;;;;;17.69;100.00;99157.31;104447;1277;69309;-72
2022/08/25 01:30:48;;;;;;;31.50;22.30;;;;;;;17.69;100.00;99153.23;104790;1274;60460;-72
2022/08/25 01:33:16;;;;;;;33.20;22.50;;;;;;;17.68;100.00;99150.99;104496;1277;60613;-72
2022/08/25 01:35:42;;;;;;;32.60;23.40;;;;;;;17.69;100.00;99153.96;104520;1274;60967;-72
2022/08/25 01:38:09;;;;;;;34.70;23.10;;;;;;;17.70;100.00;99153.66;104845;1274;74763;-71
2022/08/25 01:40:36;;;;;;;25.40;22.00;;;;;;;17.70;100.00;99152.77;104804;1274;60478;-71
2022/08/25 01:43:05;;;;;;;27.50;22.50;;;;;;;17.70;100.00;99147.36;104823;1275;74848;-72
2022/08/25 01:45:33;;;;;;;31.40;24.50;;;;;;;17.70;100.00;99143.42;104823;1275;61323;-72
2022/08/25 01:48:00;;;;;;;29.60;22.80;;;;;;;17.69;100.00;99144.02;104848;1275;61805;-71
2022/08/25 01:50:26;;;;;;;28.10;23.30;;;;;;;17.68;100.00;99144.16;104827;1273;74428;-72
2022/08/25 01:53:30;;;;;;;32.60;22.50;;;;;;;17.67;100.00;99146.20;104823;1273;69931;-72
2022/08/25 01:56:04;;;;;;;29.80;22.00;;;;;;;17.67;100.00;99144.05;103984;1281;74397;-72
2022/08/25 01:58:33;;;;;;;29.60;22.60;;;;;;;17.65;100.00;99142.23;104223;1281;61222;-72
2022/08/25 02:01:02;;;;;;;28.90;23.80;;;;;;;17.65;100.00;99141.58;104264;1281;61898;-72
2022/08/25 02:03:29;;;;;;;28.30;23.90;;;;;;;17.64;100.00;99141.10;104262;1281;75701;-73
2022/08/25 02:06:00;;;;;;;28.90;22.80;;;;;;;17.63;100.00;99140.30;104241;1281;70401;-71
2022/08/25 02:08:26;;;;;;;28.90;21.80;;;;;;;17.62;100.00;99138.98;104304;1281;73229;-71
2022/08/25 02:10:54;;;;;;;28.90;22.10;;;;;;;17.60;100.00;99141.48;103992;1281;60563;-71
2022/08/25 02:13:21;;;;;;;29.00;22.20;;;;;;;17.59;100.00;99146.98;104290;1281;61218;-72
2022/08/25 02:15:51;;;;;;;26.90;20.90;;;;;;;17.57;100.00;99145.02;103974;1283;75563;-71
2022/08/25 02:18:17;;;;;;;31.30;21.60;;;;;;;17.55;100.00;99144.97;103981;1282;71230;-72
2022/08/25 02:20:43;;;;;;;28.60;20.90;;;;;;;17.54;100.00;99147.80;104227;1281;74395;-72
2022/08/25 02:23:10;;;;;;;30.60;21.00;;;;;;;17.53;100.00;99149.28;104258;1281;60708;-72
2022/08/25 02:25:39;;;;;;;24.80;21.00;;;;;;;17.52;100.00;99143.60;104290;1281;60770;-72
2022/08/25 02:28:07;;;;;;;27.90;22.20;;;;;;;17.52;100.00;99140.97;104240;1281;75448;-72
2022/08/25 02:30:35;;;;;;;23.00;20.70;;;;;;;17.52;100.00;99143.50;104268;1281;69220;-71
2022/08/25 02:33:01;;;;;;;27.70;20.70;;;;;;;17.52;100.00;99140.63;104569;1273;73513;-71
2022/08/25 02:35:28;;;;;;;25.20;21.40;;;;;;;17.51;100.00;99137.48;104802;1273;60452;-71
2022/08/25 02:37:56;;;;;;;26.00;21.10;;;;;;;17.50;100.00;99135.20;104800;1273;60553;-72
2022/08/25 02:40:22;;;;;;;26.90;21.70;;;;;;;17.50;100.00;99139.35;104517;1274;72785;-71
2022/08/25 02:42:50;;;;;;;30.10;22.80;;;;;;;17.48;100.00;99139.68;104817;1273;61069;-72
2022/08/25 02:45:17;;;;;;;27.40;23.20;;;;;;;17.49;100.00;99134.82;104842;1273;74143;-72
2022/08/25 02:47:44;;;;;;;30.30;22.80;;;;;;;17.48;100.00;99135.04;104778;1274;61049;-72
2022/08/25 02:50:11;;;;;;;27.70;23.90;;;;;;;17.47;100.00;99135.50;104842;1273;61955;-72
2022/08/25 02:52:39;;;;;;;29.10;23.00;;;;;;;17.46;100.00;99136.10;104856;1273;74659;-71
2022/08/25 02:55:09;;;;;;;30.00;23.60;;;;;;;17.46;100.00;99133.95;104859;1273;70397;-73
2022/08/25 02:57:35;;;;;;;34.50;24.60;;;;;;;17.45;100.00;99129.74;104870;1273;74352;-71
2022/08/25 03:00:03;;;;;;;29.20;23.80;;;;;;;17.44;100.00;99128.80;104819;1273;60935;-72
2022/08/25 03:02:30;;;;;;;27.40;23.90;;;;;;;17.43;100.00;99131.20;104851;1273;60722;-71
2022/08/25 03:04:56;;;;;;;27.50;22.60;;;;;;;17.43;100.00;99134.43;104604;1274;74138;-72
2022/08/25 03:07:22;;;;;;;26.30;22.50;;;;;;;17.42;100.00;99127.77;104840;1273;60551;-72
2022/08/25 03:09:48;;;;;;;25.40;21.70;;;;;;;17.40;100.00;99127.35;104797;1273;60987;-72
2022/08/25 03:12:15;;;;;;;26.50;23.20;;;;;;;17.38;100.00;99128.64;104811;1273;60552;-72
2022/08/25 03:14:41;;;;;;;26.70;21.00;;;;;;;17.35;100.00;99120.98;104845;1273;60564;-72
2022/08/25 03:17:08;;;;;;;27.40;21.40;;;;;;;17.32;100.00;99122.64;104822;1273;60579;-71
2022/08/25 03:19:34;;;;;;;32.80;22.40;;;;;;;17.32;100.00;99122.55;104743;1273;60575;-72
2022/08/25 03:22:00;;;;;;;25.20;21.10;;;;;;;17.30;100.00;99122.52;104653;1274;62414;-72
2022/08/25 03:24:27;;;;;;;24.20;21.60;;;;;;;17.27;100.00;99118.11;104515;1273;60553;-72
2022/08/25 03:26:54;;;;;;;23.20;20.10;;;;;;;17.25;100.00;99116.89;104611;1274;60521;-72
2022/08/25 03:29:23;;;;;;;21.20;18.90;;;;;;;17.21;100.00;99114.89;104857;1273;60552;-71
2022/08/25 03:31:51;;;;;;;21.20;18.00;;;;;;;17.20;100.00;99119.55;104877;1273;71085;-72
2022/08/25 03:34:18;;;;;;;22.40;19.20;;;;;;;17.18;100.00;99118.81;104852;1273;74239;-72
2022/08/25 03:36:47;;;;;;;22.70;18.40;;;;;;;17.16;100.00;99118.64;104820;1273;61340;-73
2022/08/25 03:39:14;;;;;;;19.30;17.30;;;;;;;17.14;100.00;99117.20;104666;1274;62863;-75
2022/08/25 03:41:40;;;;;;;18.80;16.50;;;;;;;17.11;100.00;99119.63;104824;1274;74629;-73
2022/08/25 03:44:08;;;;;;;16.70;14.20;;;;;;;17.06;100.00;99119.94;104826;1273;60455;-72
2022/08/25 03:46:44;;;;;;;16.00;14.50;;;;;;;17.03;100.00;99122.88;104935;1273;74528;-72
2022/08/25 03:49:13;;;;;;;20.80;18.70;;;;;;;17.03;100.00;99117.09;104906;1273;60472;-70
2022/08/25 03:51:42;;;;;;;20.00;18.00;;;;;;;17.03;100.00;99118.88;104830;1273;61965;-71
2022/08/25 03:54:09;;;;;;;16.80;15.10;;;;;;;17.02;100.00;99117.02;104877;1273;74694;-71
2022/08/25 03:56:37;;;;;;;19.10;17.20;;;;;;;17.02;100.00;99120.48;104867;1273;70462;-73
2022/08/25 03:59:03;;;;;;;17.60;15.90;;;;;;;17.02;100.00;99118.30;104916;1273;73325;-71
2022/08/25 04:01:29;;;;;;;15.10;13.60;;;;;;;17.01;100.00;99123.93;104831;1274;60519;-72
2022/08/25 04:03:55;;;;;;;13.30;12.10;;;;;;;16.98;100.00;99119.75;104802;1273;60485;-72
2022/08/25 04:06:22;;;;;;;15.80;14.50;;;;;;;17.01;100.00;99120.59;104803;1273;60536;-71
2022/08/25 04:08:51;;;;;;;20.70;18.00;;;;;;;17.04;100.00;99122.27;104825;1273;60517;-72
2022/08/25 04:11:21;;;;;;;25.40;22.40;;;;;;;17.07;100.00;99122.86;104581;1274;74485;-71
2022/08/25 04:13:50;;;;;;;23.10;20.60;;;;;;;17.14;100.00;99120.60;104839;1273;61406;-73
2022/08/25 04:16:22;;;;;;;20.50;18.50;;;;;;;17.25;100.00;99123.58;104895;1273;61165;-72
2022/08/25 04:18:49;;;;;;;23.10;21.00;;;;;;;17.36;100.00;99122.46;104873;1273;73433;-72
2022/08/25 04:21:17;;;;;;;24.20;21.90;;;;;;;17.46;100.00;99122.52;104886;1273;70487;-72
2022/08/25 04:23:47;;;;;;;25.00;22.40;;;;;;;17.55;100.00;99122.92;104817;1273;74461;-72
2022/08/25 04:26:18;;;;;;;21.00;19.00;;;;;;;17.67;100.00;99121.61;104697;1276;61286;-72
2022/08/25 04:28:45;;;;;;;21.40;18.30;;;;;;;17.77;100.00;99118.15;104670;1276;62341;-72
2022/08/25 04:31:13;;;;;;;21.90;19.50;;;;;;;17.90;100.00;99119.23;104880;1273;74929;-72
2022/08/25 04:33:40;;;;;;;22.90;18.30;;;;;;;18.08;100.00;99120.04;104896;1273;70231;-73
2022/08/25 04:36:10;;;;;;;20.30;17.70;;;;;;;18.25;100.00;99118.59;104889;1273;74890;-72
2022/08/25 04:38:38;;;;;;;20.20;17.90;;;;;;;18.42;100.00;99122.38;104869;1273;61264;-70
2022/08/25 04:41:05;;;;;;;23.00;17.80;;;;;;;18.60;100.00;99122.50;104662;1276;62202;-72
2022/08/25 04:43:33;;;;;;;20.80;16.90;;;;;;;18.81;100.00;99121.23;104889;1273;74442;-72
2022/08/25 04:46:05;;;;;;;18.70;16.60;;;;;;;19.04;100.00;99122.23;104916;1273;70440;-71
2022/08/25 04:48:32;;;;;;;15.20;13.70;;;;;;;19.31;100.00;99118.80;104691;1273;74205;-72
2022/08/25 04:51:05;;;;;;;17.90;15.00;;;;;;;19.46;100.00;99115.45;104957;1273;60449;-72
2022/08/25 04:53:32;;;;;;;18.70;14.20;;;;;;;19.65;100.00;99115.47;104939;1273;62083;-72
2022/08/25 04:55:59;;;;;;;15.70;13.40;;;;;;;19.85;100.00;99114.85;104953;1273;75674;-73
2022/08/25 04:58:26;;;;;;;17.80;13.40;;;;;;;20.10;100.00;99113.20;104974;1274;71023;-72
2022/08/25 05:00:52;;;;;;;18.20;12.30;;;;;;;20.32;100.00;99110.48;105263;1274;60480;-72
2022/08/25 05:03:18;;;;;;;14.50;12.60;;;;;;;20.54;100.00;99107.31;104998;1273;60988;-72
2022/08/25 05:05:44;;;;;;;13.80;11.40;;;;;;;20.77;100.00;99106.98;105078;1274;60521;-73
2022/08/25 05:08:10;;;;;;;12.90;11.30;;;;;;;20.97;100.00;99110.24;105006;1273;60512;-71
2022/08/25 05:10:40;;;;;;;13.30;12.10;;;;;;;21.15;100.00;99106.29;104914;1274;60427;-72
2022/08/25 05:13:06;;;;;;;13.50;11.10;;;;;;;21.38;100.00;99110.86;104922;1274;73459;-74
2022/08/25 05:15:50;;;;;;;15.60;11.70;;;;;;;21.59;100.00;99102.97;104819;1275;60793;-73
2022/08/25 05:18:18;;;;;;;17.50;11.40;;;;;;;21.72;100.00;99105.15;104913;1273;61178;-73
2022/08/25 05:20:44;;;;;;;13.80;10.30;;;;;;;21.96;100.00;99102.73;104910;1273;75372;-73
2022/08/25 05:23:10;;;;;;;14.40;12.70;;;;;;;22.12;100.00;99102.45;104896;1273;60461;-72
2022/08/25 05:25:36;;;;;;;13.50;9.60;;;;;;;22.31;100.00;99096.69;104670;1275;61196;-71
2022/08/25 05:28:03;;;;;;;14.10;10.60;;;;;;;22.46;100.00;99095.85;104875;1273;60631;-71
2022/08/25 05:30:29;;;;;;;16.90;9.90;;;;;;;22.67;100.00;99094.15;104874;1273;60519;-72
2022/08/25 05:32:55;;;;;;;14.80;11.00;;;;;;;22.77;100.00;99096.02;104850;1273;60526;-72
2022/08/25 05:35:22;;;;;;;16.00;10.90;;;;;;;22.88;100.00;99098.77;104890;1273;60565;-71
2022/08/25 05:37:48;;;;;;;18.80;11.50;;;;;;;23.07;100.00;99106.73;104864;1273;60580;-73
2022/08/25 05:40:14;;;;;;;13.30;10.90;;;;;;;23.15;100.00;99107.41;104870;1273;60602;-71
2022/08/25 05:42:40;;;;;;;18.10;10.00;;;;;;;23.26;100.00;99107.07;104856;1273;60561;-72
2022/08/25 05:45:08;;;;;;;18.90;11.60;;;;;;;23.38;100.00;99107.58;104882;1273;60461;-72
2022/08/25 05:47:34;;;;;;;17.30;10.90;;;;;;;23.58;100.00;99113.05;104890;1273;60482;-73
2022/08/25 05:50:01;;;;;;;16.50;9.70;;;;;;;23.63;100.00;99110.77;104859;1273;60453;-72
2022/08/25 05:52:27;;;;;;;16.40;11.60;;;;;;;23.70;100.00;99107.95;104879;1273;61011;-72
2022/08/25 05:54:53;;;;;;;18.50;11.00;;;;;;;23.84;100.00;99109.75;104870;1273;60437;-72
2022/08/25 05:57:20;;;;;;;16.70;11.90;;;;;;;23.97;100.00;99105.86;104873;1273;60567;-72
2022/08/25 05:59:45;;;;;;;18.80;10.80;;;;;;;24.05;100.00;99108.45;104781;1276;60623;-72
2022/08/25 06:04:57;;;;;;;20.30;12.40;;;;;;;24.03;100.00;99111.27;104896;1273;60490;-73
2022/08/25 06:07:24;;;;;;;19.60;11.10;;;;;;;24.23;100.00;99110.46;104934;1274;61928;-73
2022/08/25 06:09:49;;;;;;;20.20;13.30;;;;;;;24.33;100.00;99110.29;104898;1273;60580;-73
2022/08/25 06:12:17;;;;;;;17.90;13.20;;;;;;;24.44;100.00;99112.85;104835;1271;60542;-74
2022/08/25 06:14:44;;;;;;;17.40;12.90;;;;;;;24.52;100.00;99117.56;104786;1275;74152;-75
2022/08/25 06:17:10;;;;;;;17.90;11.10;;;;;;;24.58;100.00;99118.13;104826;1274;60484;-74
2022/08/25 06:19:36;;;;;;;21.00;11.10;;;;;;;24.50;100.00;99122.39;104899;1273;60528;-74
2022/08/25 06:22:02;;;;;;;22.20;12.20;;;;;;;24.40;100.00;99117.23;103908;1274;1270512;-74
2022/08/25 06:24:28;;;;;;;20.40;15.10;;;;;;;24.38;100.00;99118.76;104882;1273;60565;-72
2022/08/25 06:26:55;;;;;;;20.20;13.80;;;;;;;24.36;100.00;99116.73;104874;1273;60652;-72
2022/08/25 06:29:23;;;;;;;25.30;14.20;;;;;;;24.40;100.00;99120.96;104903;1273;60487;-73
2022/08/25 06:31:49;;;;;;;20.70;12.50;;;;;;;24.61;100.00;99119.77;104869;1273;60384;-73
2022/08/25 06:34:16;;;;;;;18.80;11.90;;;;;;;24.86;100.00;99117.09;104865;1273;60482;-72
2022/08/25 06:36:42;;;;;;;24.00;19.40;;;;;;;24.97;100.00;99118.41;104873;1273;60934;-74
2022/08/25 06:39:08;;;;;;;25.10;22.00;;;;;;;25.05;100.00;99117.85;104801;1274;61076;-71
2022/08/25 06:41:35;;;;;;;25.00;22.00;;;;;;;25.08;100.00;99119.86;104881;1273;60486;-72
2022/08/25 06:44:01;;;;;;;25.00;20.20;;;;;;;24.95;100.00;99123.02;104855;1274;60574;-72
2022/08/25 06:46:29;;;;;;;27.10;22.00;;;;;;;24.78;100.00;99120.11;104857;1273;60528;-72
2022/08/25 06:48:56;;;;;;;30.60;23.80;;;;;;;24.71;100.00;99123.59;104876;1274;70820;-73
2022/08/25 06:51:25;;;;;;;28.00;21.50;;;;;;;24.66;100.00;99119.38;104836;1274;73309;-72
2022/08/25 06:53:52;;;;;;;28.60;22.30;;;;;;;24.59;100.00;99118.15;104856;1274;60458;-72
2022/08/25 06:56:20;;;;;;;26.30;23.00;;;;;;;24.52;100.00;99119.14;104939;1273;60925;-73
2022/08/25 06:58:47;;;;;;;28.30;21.10;;;;;;;24.48;100.00;99115.78;104882;1274;75917;-72
2022/08/25 07:01:22;;;;;;;28.80;24.40;;;;;;;24.36;100.00;99117.05;104835;1274;70156;-72
2022/08/25 07:03:49;;;;;;;29.60;24.10;;;;;;;24.31;100.00;99115.07;104903;1273;74249;-72
2022/08/25 07:06:17;;;;;;;28.00;23.50;;;;;;;24.31;100.00;99118.21;104858;1274;60481;-72
2022/08/25 07:08:44;;;;;;;28.40;23.90;;;;;;;24.36;100.00;99123.30;104884;1274;61933;-72
2022/08/25 07:11:13;;;;;;;29.30;23.50;;;;;;;24.40;100.00;99118.95;104909;1274;75485;-72
2022/08/25 07:13:39;;;;;;;29.70;23.40;;;;;;;24.43;100.00;99116.54;104860;1273;70525;-72
2022/08/25 07:16:06;;;;;;;25.20;21.60;;;;;;;24.44;100.00;99118.23;104890;1273;73437;-73
2022/08/25 07:18:34;;;;;;;26.50;21.80;;;;;;;24.52;100.00;99120.74;104834;1274;60488;-73
2022/08/25 07:21:00;;;;;;;24.60;20.70;;;;;;;24.67;100.00;99115.06;104826;1275;62112;-72
2022/08/25 07:23:27;;;;;;;26.50;20.70;;;;;;;24.68;100.00;99114.61;104896;1274;60551;-72
2022/08/25 07:25:54;;;;;;;26.00;20.10;;;;;;;24.63;100.00;99116.27;104877;1273;60548;-72
2022/08/25 07:28:22;;;;;;;23.40;20.60;;;;;;;24.58;100.00;99114.23;104898;1274;60590;-72
2022/08/25 07:30:50;;;;;;;27.00;20.20;;;;;;;24.59;100.00;99112.85;104948;1274;60488;-71
2022/08/25 07:33:16;;;;;;;25.20;18.60;;;;;;;24.58;100.00;99113.52;104979;1273;62046;-71
2022/08/25 07:35:42;;;;;;;24.10;17.50;;;;;;;24.62;100.00;99115.20;104869;1273;60517;-72
2022/08/25 07:38:08;;;;;;;25.60;18.00;;;;;;;24.74;100.00;99107.10;104865;1273;60579;-74
2022/08/25 07:40:37;;;;;;;23.80;17.90;;;;;;;24.82;100.00;99114.08;104877;1273;60582;-73
2022/08/25 07:43:07;;;;;;;20.70;18.50;;;;;;;24.93;100.00;99117.20;104902;1273;60508;-71
2022/08/25 07:45:36;;;;;;;23.50;18.40;;;;;;;25.00;100.00;99120.06;104939;1274;62019;-71
2022/08/25 07:48:08;;;;;;;24.60;18.50;;;;;;;25.06;100.00;99118.92;104939;1273;74840;-72
2022/08/25 07:50:37;;;;;;;24.80;17.40;;;;;;;25.03;100.00;99120.94;104879;1274;69779;-72
2022/08/25 07:53:04;;;;;;;23.20;16.50;;;;;;;25.02;100.00;99119.05;104877;1273;74465;-71
2022/08/25 07:55:31;;;;;;;25.20;17.80;;;;;;;25.17;100.00;99121.36;104880;1274;60479;-73
2022/08/25 07:57:58;;;;;;;25.30;19.10;;;;;;;25.33;100.00;99120.20;104852;1274;60796;-72
2022/08/25 08:00:28;;;;;;;23.80;18.90;;;;;;;25.48;100.00;99118.36;104873;1273;75892;-71
2022/08/25 08:02:59;;;;;;;19.60;17.50;;;;;;;25.42;100.00;99115.38;104875;1273;70971;-73
2022/08/25 08:05:26;;;;;;;21.80;16.20;;;;;;;25.37;100.00;99119.52;104768;1273;73403;-72
2022/08/25 08:07:53;;;;;;;24.70;17.90;;;;;;;25.37;100.00;99111.34;104854;1273;60481;-72
2022/08/25 08:10:19;;;;;;;22.70;16.80;;;;;;;25.42;100.00;99112.77;104876;1274;60585;-73
2022/08/25 08:12:45;;;;;;;27.60;16.90;;;;;;;25.49;100.00;99105.11;104862;1274;75586;-71
2022/08/25 08:15:13;;;;;;;24.00;17.70;;;;;;;25.50;100.00;99105.24;104869;1274;60495;-73
2022/08/25 08:17:39;;;;;;;22.50;16.10;;;;;;;25.50;100.00;99104.70;104912;1274;74410;-72
2022/08/25 08:20:08;;;;;;;24.10;18.20;;;;;;;25.52;100.00;99101.35;104788;1275;60472;-72
2022/08/25 08:22:39;;;;;;;23.60;18.00;;;;;;;25.59;100.00;99103.52;104856;1274;60546;-72
2022/08/25 08:25:07;;;;;;;23.50;16.10;;;;;;;25.60;100.00;99102.39;104911;1274;73658;-72
2022/08/25 08:27:33;;;;;;;23.00;14.30;;;;;;;25.73;100.00;99104.81;104897;1274;69487;-72
2022/08/25 08:30:01;;;;;;;24.50;15.20;;;;;;;25.85;100.00;99106.48;104893;1274;73099;-72
2022/08/25 08:32:29;;;;;;;21.00;12.90;;;;;;;25.92;100.00;99109.10;104795;1274;60449;-72
2022/08/25 08:34:54;;;;;;;24.30;14.10;;;;;;;25.82;100.00;99102.75;104913;1274;60510;-72
2022/08/25 08:37:21;;;;;;;18.80;13.40;;;;;;;25.81;100.00;99105.55;104879;1274;60580;-73
2022/08/25 08:39:48;;;;;;;21.60;13.40;;;;;;;25.97;100.00;99104.48;104811;1275;61089;-75
2022/08/25 08:42:46;;;;;;;27.40;13.90;;;;;;;26.16;100.00;99103.96;104886;1274;60697;-72
2022/08/25 08:45:34;;;;;;;23.30;12.40;;;;;;;26.37;100.00;99101.73;104866;1274;61014;-73
2022/08/25 08:48:39;;;;;;;17.10;10.80;;;;;;;26.57;100.00;99098.99;104901;1274;61281;-73
2022/08/25 08:51:16;;;;;;;14.60;9.50;;;;;;;26.78;100.00;99100.42;104875;1274;75642;-73
2022/08/25 08:53:56;;;;;;;19.90;9.80;;;;;;;26.95;100.00;99097.00;104798;1276;70489;-72
2022/08/25 08:56:28;;;;;;;18.70;10.70;;;;;;;27.20;100.00;99095.66;104889;1274;73958;-73
2022/08/25 08:58:58;;;;;;;18.80;9.10;;;;;;;27.39;100.00;99097.88;104814;1274;60976;-73
2022/08/25 09:01:36;;;;;;;19.20;10.20;;;;;;;27.54;100.00;99095.02;104876;1274;61081;-73
2022/08/25 09:04:17;;;;;;;16.80;9.20;;;;;;;27.72;100.00;99094.17;104891;1274;73996;-72
2022/08/25 09:06:46;;;;;;;22.30;9.70;;;;;;;27.81;100.00;99095.85;104881;1271;69283;-72
2022/08/25 09:09:19;;;;;;;19.70;10.30;;;;;;;27.72;100.00;99098.81;104926;1271;74317;-72
2022/08/25 09:12:03;;;;;;;16.20;8.40;;;;;;;27.57;100.00;99098.11;105054;1271;60469;-72
2022/08/25 09:14:50;;;;;;;21.40;10.10;;;;;;;27.49;100.00;99097.58;105092;1270;61374;-73
2022/08/25 09:17:50;;;;;;;25.70;11.50;;;;;;;27.53;100.00;99095.73;105110;1271;75633;-72
2022/08/25 09:20:58;;;;;;;23.40;10.30;;;;;;;27.50;100.00;99097.80;105063;1270;69383;-72
2022/08/25 09:23:35;;;;;;;22.30;10.20;;;;;;;27.37;100.00;99102.38;105093;1271;73577;-73
2022/08/25 09:26:20;;;;;;;25.30;11.00;;;;;;;27.33;100.00;99101.16;105026;1271;60482;-72
2022/08/25 09:28:56;;;;;;;18.50;9.00;;;;;;;27.34;100.00;99099.80;105069;1271;62223;-72
2022/08/25 09:31:30;;;;;;;22.00;10.30;;;;;;;27.17;100.00;99095.70;104892;1271;75516;-73
2022/08/25 09:34:00;;;;;;;23.30;10.30;;;;;;;27.05;100.00;99093.65;105086;1271;69309;-72
2022/08/25 09:36:26;;;;;;;24.80;9.30;;;;;;;27.20;100.00;99090.42;105073;1270;74742;-72
2022/08/25 09:38:54;;;;;;;18.90;9.90;;;;;;;27.28;100.00;99091.26;105060;1270;60446;-73
2022/08/25 09:41:41;;;;;;;23.00;10.20;;;;;;;27.24;100.00;99085.86;105098;1271;61395;-72
2022/08/25 09:44:18;;;;;;;22.40;9.70;;;;;;;27.15;100.00;99084.60;105059;1271;74522;-72
2022/08/25 09:47:00;;;;;;;23.90;11.70;;;;;;;27.21;100.00;99088.67;105094;1271;69438;-73
2022/08/25 09:49:33;;;;;;;20.60;10.20;;;;;;;27.19;100.00;99087.07;105031;1271;73420;-72
2022/08/25 09:52:27;;;;;;;30.40;10.80;;;;;;;27.20;100.00;99082.23;105054;1271;60607;-73
2022/08/25 09:54:58;;;;;;;22.70;10.50;;;;;;;27.23;100.00;99077.27;105023;1271;61127;-73
2022/08/25 09:57:42;;;;;;;25.10;10.10;;;;;;;27.26;100.00;99078.45;105033;1271;74305;-72
2022/08/25 10:00:22;;;;;;;23.90;10.00;;;;;;;27.36;100.00;99075.35;105077;1271;68873;-72
2022/08/25 10:03:01;;;;;;;;;;;;;;;27.47;100.00;99073.92;105175;1271;72934;-74
2022/08/25 10:05:27;;;;;;;24.10;10.50;;;;;;;27.49;100.00;99072.78;105064;1271;60817;-72
2022/08/25 10:07:59;;;;;;;21.80;9.90;;;;;;;27.52;100.00;99065.95;105035;1270;60456;-72
2022/08/25 10:10:37;;;;;;;20.50;9.50;;;;;;;27.53;100.00;99069.13;104854;1272;75940;-74
2022/08/25 10:13:13;;;;;;;22.90;10.40;;;;;;;27.59;100.00;99064.87;105079;1271;69341;-73
2022/08/25 10:15:39;;;;;;;21.00;10.10;;;;;;;27.60;100.00;99063.27;105000;1271;74479;-73
2022/08/25 10:18:28;;;;;;;21.80;9.50;;;;;;;27.64;100.00;99057.95;105055;1271;60498;-72
2022/08/25 10:21:08;;;;;;;21.20;8.60;;;;;;;27.72;100.00;99058.62;105159;1271;61211;-73
2022/08/25 10:23:39;;;;;;;25.20;10.10;;;;;;;27.78;100.00;99058.02;105098;1271;73368;-74
2022/08/25 10:26:16;;;;;;;22.70;10.70;;;;;;;27.86;100.00;99056.52;105148;1271;69356;-72
2022/08/25 10:28:50;;;;;;;25.80;10.20;;;;;;;27.93;100.00;99053.41;105051;1270;73445;-72
2022/08/25 10:31:27;;;;;;;28.30;10.60;;;;;;;27.93;100.00;99048.09;105088;1270;60473;-73
2022/08/25 10:34:32;;;;;;;31.20;11.00;;;;;;;27.89;100.00;99043.09;105056;1271;61865;-73
2022/08/25 10:37:11;;;;;;;20.00;8.70;;;;;;;27.92;100.00;99038.86;105114;1270;74665;-73
2022/08/25 10:39:40;;;;;;;25.90;10.00;;;;;;;28.03;100.00;99037.58;105084;1270;68214;-73
2022/08/25 10:42:25;;;;;;;23.70;9.80;;;;;;;28.18;100.00;99038.59;105072;1271;74519;-72
2022/08/25 10:48:14;;;;;;;23.30;9.70;;;;;;;28.31;100.00;99036.44;104530;1277;60906;-72
2022/08/25 10:50:43;;;;;;;;;;;;;;;28.22;100.00;99036.83;104575;1277;75678;-72
2022/08/25 10:53:26;;;;;;;24.20;9.80;;;;;;;28.13;100.00;99033.91;104595;1277;70186;-72
2022/08/25 10:56:04;;;;;;;19.20;9.20;;;;;;;28.09;100.00;99032.75;104542;1277;74668;-72
2022/08/25 10:58:43;;;;;;;29.10;10.80;;;;;;;28.01;100.00;99029.44;104585;1277;61123;-72
2022/08/25 11:01:27;;;;;;;25.10;9.90;;;;;;;27.87;100.00;99028.12;104547;1277;60666;-72
2022/08/25 11:04:06;;;;;;;21.90;8.90;;;;;;;27.93;100.00;99020.87;104595;1277;74477;-73
2022/08/25 11:07:08;;;;;;;20.30;9.70;;;;;;;28.08;100.00;99015.63;104580;1277;70166;-73
2022/08/25 11:09:39;;;;;;;29.10;9.30;;;;;;;28.26;100.00;99007.98;103832;1287;73304;-74
2022/08/25 11:12:31;;;;;;;19.30;8.30;;;;;;;28.37;100.00;99003.39;103829;1285;61263;-73
2022/08/25 11:15:08;;;;;;;25.90;8.90;;;;;;;28.43;100.00;99003.59;103877;1284;61153;-72
2022/08/25 11:17:52;;;;;;;23.90;9.50;;;;;;;28.42;100.00;98998.30;103913;1285;74555;-72
2022/08/25 11:20:23;;;;;;;23.20;9.70;;;;;;;28.44;100.00;98997.98;103889;1285;69852;-72
2022/08/25 11:23:03;;;;;;;34.00;10.90;;;;;;;28.42;100.00;98998.30;103832;1285;74129;-73
2022/08/25 11:25:36;;;;;;;22.70;8.70;;;;;;;28.34;100.00;98993.88;104160;1278;60967;-73